Time;durP1;ratioP1;P1;durP2;ratioP2;P2;SDS_P1;SDS_P2;PMS_P1;PMS_P2;Temp;Humidity;BMP_temperature;BMP_pressure;BME280_temperature;BME280_humidity;BME280_pressure;Samples;Min_cycle;Max_cycle;Signal;HPM_P1;HPM_P2
2021/09/19 00:00:59;;;;;;;0.10;0.10;;;;;;;18.27;61.64;98730.50;5014355;28;20671;-76
2021/09/19 00:03:25;;;;;;;0.28;0.25;;;;;;;18.26;61.59;98728.91;5014131;28;20018;-78
2021/09/19 00:05:50;;;;;;;0.10;0.10;;;;;;;18.30;61.31;98737.97;5014082;28;20392;-77
2021/09/19 00:08:16;;;;;;;0.00;0.00;;;;;;;18.30;61.29;98738.75;5013878;28;20079;-75
2021/09/19 00:10:42;;;;;;;0.10;0.10;;;;;;;18.33;61.38;98756.22;5013957;28;20488;-75
2021/09/19 00:13:08;;;;;;;0.10;0.10;;;;;;;18.35;61.25;98757.47;5014157;28;20523;-77
2021/09/19 00:15:33;;;;;;;0.15;0.15;;;;;;;18.38;61.11;98775.78;5013933;28;20041;-78
2021/09/19 00:17:59;;;;;;;0.10;0.10;;;;;;;18.40;61.36;98775.44;5012663;28;20046;-77
2021/09/19 00:20:24;;;;;;;0.10;0.10;;;;;;;18.42;61.04;98772.38;5013591;28;20469;-77
2021/09/19 00:22:50;;;;;;;0.00;0.00;;;;;;;18.41;61.16;98777.03;5014001;28;20476;-75
2021/09/19 00:25:15;;;;;;;0.10;0.10;;;;;;;18.46;61.34;98778.72;5013834;28;20014;-75
2021/09/19 00:27:41;;;;;;;0.10;0.10;;;;;;;18.48;60.77;98787.28;5013998;28;20049;-75
2021/09/19 00:30:08;;;;;;;0.00;0.00;;;;;;;18.47;60.75;98781.09;5013973;28;20026;-75
2021/09/19 00:32:35;;;;;;;0.08;0.08;;;;;;;18.44;60.99;98772.84;5013692;28;20038;-76
2021/09/19 00:35:01;;;;;;;0.10;0.10;;;;;;;18.45;60.98;98772.50;5013790;28;20567;-75
2021/09/19 00:37:27;;;;;;;0.10;0.10;;;;;;;18.48;61.23;98788.09;5012555;28;20026;-76
2021/09/19 00:39:53;;;;;;;0.00;0.00;;;;;;;18.47;61.02;98775.69;5013797;28;20025;-75
2021/09/19 00:42:18;;;;;;;0.10;0.10;;;;;;;18.47;61.01;98785.69;5013423;28;20034;-77
2021/09/19 00:44:44;;;;;;;0.00;0.00;;;;;;;18.47;60.81;98778.38;5013435;28;20022;-77
2021/09/19 00:47:09;;;;;;;0.10;0.10;;;;;;;18.47;60.84;98769.44;5012319;28;20396;-77
2021/09/19 00:49:35;;;;;;;0.08;0.08;;;;;;;18.47;60.89;98766.75;5013326;28;20105;-77
2021/09/19 00:52:00;;;;;;;0.00;0.00;;;;;;;18.49;60.79;98773.44;5013379;28;20049;-77
2021/09/19 00:54:27;;;;;;;0.10;0.10;;;;;;;18.47;60.94;98772.97;5012948;28;20022;-77
2021/09/19 00:56:56;;;;;;;0.03;0.03;;;;;;;18.48;60.64;98766.44;5013470;28;20049;-77
2021/09/19 00:59:22;;;;;;;0.08;0.08;;;;;;;18.44;60.95;98760.09;5013127;28;20104;-77
2021/09/19 01:01:52;;;;;;;0.08;0.08;;;;;;;18.43;60.85;98755.81;5013244;28;20584;-77
2021/09/19 01:04:18;;;;;;;0.10;0.10;;;;;;;18.43;61.02;98772.06;5013072;28;20021;-77
2021/09/19 01:06:43;;;;;;;0.10;0.10;;;;;;;18.37;61.03;98779.59;5013273;28;20088;-77
2021/09/19 01:09:09;;;;;;;0.10;0.10;;;;;;;18.32;61.08;98779.81;5011964;28;20026;-77
2021/09/19 01:11:35;;;;;;;0.10;0.10;;;;;;;18.35;61.03;98776.44;5011551;28;20103;-77
2021/09/19 01:14:01;;;;;;;0.00;0.00;;;;;;;18.33;61.01;98775.97;5011915;28;20018;-77
2021/09/19 01:16:27;;;;;;;0.10;0.10;;;;;;;18.35;60.99;98783.78;5012858;28;20033;-77
2021/09/19 01:18:54;;;;;;;0.10;0.10;;;;;;;18.27;60.88;98766.47;5012987;28;20050;-75
2021/09/19 01:21:20;;;;;;;0.10;0.10;;;;;;;18.19;61.10;98754.63;5012799;28;20534;-78
2021/09/19 01:24:03;;;;;;;0.43;0.22;;;;;;;18.17;61.27;98756.09;5012867;28;20029;-77
2021/09/19 01:26:30;;;;;;;0.10;0.10;;;;;;;18.08;61.58;98762.34;5012614;28;20018;-77
2021/09/19 01:28:56;;;;;;;0.08;0.08;;;;;;;17.98;61.64;98773.59;5012851;28;20030;-77
2021/09/19 01:31:23;;;;;;;0.20;0.20;;;;;;;17.92;61.99;98778.41;5011205;28;20049;-77
2021/09/19 01:33:49;;;;;;;0.38;0.38;;;;;;;17.95;61.87;98787.78;5012973;28;20061;-77
2021/09/19 01:36:14;;;;;;;0.00;0.00;;;;;;;17.92;62.16;98785.72;5011421;28;20076;-77
2021/09/19 01:38:40;;;;;;;0.00;0.00;;;;;;;17.99;61.87;98798.72;5012394;28;20030;-77
2021/09/19 01:41:06;;;;;;;0.10;0.10;;;;;;;18.01;61.96;98789.16;5012556;28;20064;-78
2021/09/19 01:43:32;;;;;;;0.00;0.00;;;;;;;18.07;61.75;98795.94;5012093;28;20092;-77
2021/09/19 01:46:02;;;;;;;0.10;0.10;;;;;;;18.03;61.56;98781.50;5012566;28;20113;-77
2021/09/19 01:48:38;;;;;;;0.00;0.00;;;;;;;18.13;61.50;98791.13;5010802;28;20026;-77
2021/09/19 01:51:05;;;;;;;0.00;0.00;;;;;;;18.16;61.12;98787.78;5012367;28;20488;-75
2021/09/19 01:53:31;;;;;;;0.00;0.00;;;;;;;18.16;61.25;98774.25;5012364;28;20152;-75
2021/09/19 01:55:56;;;;;;;0.20;0.20;;;;;;;18.21;60.92;98770.50;5012215;28;20351;-77
2021/09/19 01:58:24;;;;;;;0.05;0.05;;;;;;;18.18;60.95;98763.09;5010927;28;20532;-77
2021/09/19 02:00:49;;;;;;;0.03;0.03;;;;;;;18.21;60.74;98762.41;5012276;28;20457;-77
2021/09/19 02:03:17;;;;;;;0.10;0.10;;;;;;;18.12;60.67;98761.72;5011119;28;20025;-77
2021/09/19 02:05:42;;;;;;;0.10;0.10;;;;;;;18.06;60.62;98767.31;5012047;28;20030;-77
2021/09/19 02:08:08;;;;;;;0.10;0.10;;;;;;;17.98;60.81;98779.03;5010887;28;20018;-78
2021/09/19 02:10:33;;;;;;;0.00;0.00;;;;;;;17.93;61.00;98785.38;5012125;28;20033;-77
2021/09/19 02:12:59;;;;;;;0.08;0.08;;;;;;;17.92;60.82;98794.63;5011695;28;20021;-77
2021/09/19 02:15:24;;;;;;;0.10;0.10;;;;;;;17.91;60.97;98784.13;5011513;28;20030;-77
2021/09/19 02:17:49;;;;;;;0.10;0.10;;;;;;;17.91;60.78;98782.22;5012072;28;20045;-77
2021/09/19 02:20:16;;;;;;;0.10;0.10;;;;;;;17.90;60.98;98783.34;5012155;28;20025;-77
2021/09/19 02:22:42;;;;;;;0.10;0.10;;;;;;;17.89;61.06;98783.66;5011736;28;20045;-77
2021/09/19 02:25:08;;;;;;;0.10;0.10;;;;;;;17.88;61.00;98779.38;5012071;28;20541;-77
2021/09/19 02:27:35;;;;;;;0.10;0.10;;;;;;;17.89;60.93;98778.25;5011879;28;20022;-77
2021/09/19 02:30:05;;;;;;;0.10;0.10;;;;;;;17.92;60.76;98780.31;5011734;28;20061;-77
2021/09/19 02:32:31;;;;;;;0.10;0.10;;;;;;;17.97;60.60;98780.13;5011655;28;20021;-77
2021/09/19 02:34:56;;;;;;;0.00;0.00;;;;;;;18.00;60.83;98784.88;5011564;28;20026;-77
2021/09/19 02:37:21;;;;;;;0.20;0.20;;;;;;;18.00;60.66;98776.75;5012086;28;20072;-77
2021/09/19 02:39:47;;;;;;;0.00;0.00;;;;;;;18.00;60.75;98781.38;5011933;28;20369;-77
2021/09/19 02:42:12;;;;;;;0.00;0.00;;;;;;;18.03;60.77;98778.03;5010497;28;20096;-77
2021/09/19 02:44:38;;;;;;;0.10;0.10;;;;;;;18.01;60.60;98777.56;5011314;28;20033;-77
2021/09/19 02:47:03;;;;;;;0.30;0.30;;;;;;;18.02;60.69;98782.63;5011902;28;20457;-77
2021/09/19 02:49:29;;;;;;;0.00;0.00;;;;;;;18.04;61.00;98780.41;5011392;28;20026;-76
2021/09/19 02:51:54;;;;;;;0.00;0.00;;;;;;;18.04;61.15;98780.41;5010232;28;20028;-77
2021/09/19 02:54:20;;;;;;;0.00;0.00;;;;;;;18.06;61.43;98780.84;5011300;28;20049;-77
2021/09/19 02:56:45;;;;;;;0.00;0.00;;;;;;;18.06;61.40;98782.75;5011587;28;20049;-77
2021/09/19 02:59:11;;;;;;;0.10;0.10;;;;;;;18.07;61.25;98784.34;5011293;28;20029;-77
2021/09/19 03:01:36;;;;;;;0.00;0.00;;;;;;;18.11;61.40;98779.06;5014983;28;20021;-77
2021/09/19 03:04:02;;;;;;;0.00;0.00;;;;;;;18.11;61.35;98781.78;5015648;28;20444;-77
2021/09/19 03:06:27;;;;;;;0.10;0.10;;;;;;;18.11;61.37;98771.72;5014027;28;20018;-77
2021/09/19 03:08:53;;;;;;;0.08;0.08;;;;;;;18.11;61.38;98777.13;5015214;28;20492;-76
2021/09/19 03:11:18;;;;;;;0.10;0.10;;;;;;;18.13;61.47;98779.53;5014043;28;20051;-75
2021/09/19 03:13:45;;;;;;;0.00;0.00;;;;;;;18.14;61.33;98772.97;5015233;28;20124;-75
2021/09/19 03:16:11;;;;;;;0.10;0.10;;;;;;;18.16;61.13;98773.44;5015316;28;20080;-75
2021/09/19 03:18:36;;;;;;;0.10;0.10;;;;;;;18.18;61.27;98763.09;5013599;28;20057;-76
2021/09/19 03:21:02;;;;;;;0.00;0.00;;;;;;;18.16;61.10;98765.31;5015583;28;20021;-78
2021/09/19 03:23:27;;;;;;;0.10;0.10;;;;;;;18.16;60.97;98766.13;5015276;28;20064;-77
2021/09/19 03:25:53;;;;;;;0.10;0.10;;;;;;;18.17;60.91;98772.31;5014908;28;20014;-75
2021/09/19 03:28:18;;;;;;;0.10;0.10;;;;;;;18.15;61.14;98769.16;5013786;28;20362;-76
2021/09/19 03:30:43;;;;;;;0.10;0.10;;;;;;;18.15;61.09;98771.84;5014535;28;20026;-75
2021/09/19 03:33:09;;;;;;;0.10;0.10;;;;;;;18.11;61.08;98777.13;5014871;28;20097;-75
2021/09/19 03:35:34;;;;;;;0.20;0.20;;;;;;;18.09;61.15;98771.28;5015123;28;20026;-76
2021/09/19 03:38:00;;;;;;;0.10;0.10;;;;;;;18.05;61.35;98781.19;5015198;28;20126;-76
2021/09/19 03:40:25;;;;;;;0.10;0.10;;;;;;;18.02;61.39;98782.63;5013530;28;20479;-75
2021/09/19 03:42:52;;;;;;;0.10;0.10;;;;;;;17.98;61.44;98775.50;5014827;28;20021;-79
2021/09/19 03:45:17;;;;;;;0.10;0.10;;;;;;;17.98;61.42;98780.91;5014956;28;20018;-76
2021/09/19 03:47:43;;;;;;;0.08;0.08;;;;;;;17.93;61.64;98782.69;5014751;28;20032;-76
2021/09/19 03:50:10;;;;;;;0.00;0.00;;;;;;;17.91;61.63;98782.22;5014306;28;20097;-76
2021/09/19 03:52:35;;;;;;;0.08;0.08;;;;;;;17.89;61.70;98781.78;5014486;28;20021;-76
2021/09/19 03:55:01;;;;;;;0.00;0.00;;;;;;;17.88;61.77;98776.69;5014551;28;20017;-77
2021/09/19 03:57:26;;;;;;;0.10;0.10;;;;;;;17.87;61.85;98775.91;5014770;28;20092;-77
2021/09/19 03:59:52;;;;;;;0.10;0.10;;;;;;;17.85;61.84;98766.53;5013925;28;20025;-77
2021/09/19 04:02:17;;;;;;;0.10;0.10;;;;;;;17.86;61.95;98777.00;5014163;28;20049;-76
2021/09/19 04:04:42;;;;;;;0.05;0.05;;;;;;;17.85;61.87;98777.34;5012597;28;20037;-77
2021/09/19 04:07:08;;;;;;;0.00;0.00;;;;;;;17.84;62.07;98770.34;5013055;28;20022;-76
2021/09/19 04:09:34;;;;;;;0.28;0.28;;;;;;;17.83;62.26;98776.88;5014283;28;20075;-77
2021/09/19 04:12:00;;;;;;;0.20;0.20;;;;;;;17.79;62.28;98779.47;5014227;28;20075;-77
2021/09/19 04:14:25;;;;;;;0.10;0.10;;;;;;;17.74;62.32;98776.97;5012881;28;20113;-76
2021/09/19 04:16:51;;;;;;;0.20;0.20;;;;;;;17.75;62.17;98779.31;5013712;28;20025;-77
2021/09/19 04:19:17;;;;;;;0.10;0.10;;;;;;;17.79;62.36;98774.03;5014245;28;20038;-76
2021/09/19 04:21:42;;;;;;;0.00;0.00;;;;;;;17.86;62.27;98777.00;5013582;28;20580;-77
2021/09/19 04:24:08;;;;;;;0.00;0.00;;;;;;;17.91;62.30;98779.50;5014104;28;20048;-77
2021/09/19 04:26:33;;;;;;;0.10;0.10;;;;;;;18.03;62.20;98786.16;5013843;28;20101;-76
2021/09/19 04:28:58;;;;;;;0.00;0.00;;;;;;;18.17;61.94;98786.63;5013943;28;20032;-76
2021/09/19 04:31:24;;;;;;;0.00;0.00;;;;;;;18.37;61.63;98776.91;5013815;28;20030;-76
2021/09/19 04:33:49;;;;;;;0.08;0.08;;;;;;;18.60;61.11;98773.75;5013652;28;20112;-76
2021/09/19 04:36:15;;;;;;;0.10;0.10;;;;;;;18.78;60.42;98771.66;5013585;28;20073;-76
2021/09/19 04:38:40;;;;;;;0.00;0.00;;;;;;;18.93;59.93;98781.06;5013629;28;20024;-76
2021/09/19 04:41:05;;;;;;;0.00;0.00;;;;;;;19.11;59.57;98786.25;5013608;28;20017;-77
2021/09/19 04:43:31;;;;;;;0.00;0.00;;;;;;;19.38;58.88;98786.69;5013650;28;20018;-77
2021/09/19 04:45:56;;;;;;;0.10;0.10;;;;;;;19.64;58.34;98791.72;5013548;28;20098;-77
2021/09/19 04:48:22;;;;;;;0.10;0.10;;;;;;;19.94;57.66;98789.50;5012408;28;20032;-77
2021/09/19 04:50:48;;;;;;;0.10;0.10;;;;;;;20.26;56.67;98791.53;5013317;28;20033;-77
2021/09/19 04:53:13;;;;;;;0.10;0.10;;;;;;;20.61;56.02;98791.66;5012284;28;20025;-77
2021/09/19 04:55:39;;;;;;;0.10;0.10;;;;;;;20.97;55.21;98794.53;5013081;28;20022;-77
2021/09/19 04:58:04;;;;;;;0.00;0.00;;;;;;;21.30;54.14;98798.78;5013366;28;20516;-77
2021/09/19 05:00:30;;;;;;;0.00;0.00;;;;;;;21.63;53.14;98800.31;5013068;28;20024;-77
2021/09/19 05:02:55;;;;;;;0.10;0.10;;;;;;;21.97;52.27;98805.25;5012827;28;20049;-77
2021/09/19 05:05:21;;;;;;;0.00;0.00;;;;;;;22.24;51.52;98800.75;5012944;28;20491;-77
2021/09/19 05:07:46;;;;;;;0.00;0.00;;;;;;;22.55;50.71;98797.03;5011700;28;20022;-77
2021/09/19 05:10:12;;;;;;;0.00;0.00;;;;;;;22.84;50.11;98803.00;5013464;28;20026;-78
2021/09/19 05:12:37;;;;;;;0.10;0.10;;;;;;;23.14;49.49;98794.13;5012662;28;20025;-78
2021/09/19 05:15:03;;;;;;;0.00;0.00;;;;;;;23.42;48.69;98801.16;5013261;28;20109;-78
2021/09/19 05:17:29;;;;;;;0.00;0.00;;;;;;;23.67;48.16;98804.22;5012583;28;20065;-78
2021/09/19 05:19:55;;;;;;;0.10;0.10;;;;;;;23.91;47.92;98785.81;5011398;28;20057;-78
2021/09/19 05:22:20;;;;;;;0.00;0.00;;;;;;;24.10;47.09;98784.09;5012514;28;20512;-78
2021/09/19 05:24:46;;;;;;;0.00;0.00;;;;;;;24.23;46.69;98779.94;5012608;28;20508;-78
2021/09/19 05:27:11;;;;;;;0.10;0.10;;;;;;;24.35;46.20;98787.09;5012626;28;20025;-78
2021/09/19 05:29:37;;;;;;;0.00;0.00;;;;;;;24.48;45.85;98790.34;5011272;28;20026;-78
2021/09/19 05:32:02;;;;;;;0.00;0.00;;;;;;;24.50;45.87;98793.47;5012486;28;20492;-78
2021/09/19 05:34:31;;;;;;;0.10;0.10;;;;;;;24.52;45.62;98791.13;5012710;28;20626;-77
2021/09/19 05:36:56;;;;;;;0.00;0.00;;;;;;;24.57;45.13;98796.28;5012582;28;20098;-77
2021/09/19 05:39:22;;;;;;;0.10;0.10;;;;;;;24.58;45.25;98803.34;5013032;28;20615;-78
2021/09/19 05:41:47;;;;;;;0.00;0.00;;;;;;;24.61;44.98;98799.06;5012013;28;20163;-77
2021/09/19 05:44:13;;;;;;;0.00;0.00;;;;;;;24.68;44.44;98801.88;5012318;28;20018;-78
2021/09/19 05:46:38;;;;;;;0.00;0.00;;;;;;;24.74;44.61;98797.63;5012122;28;20032;-77
2021/09/19 05:49:03;;;;;;;0.00;0.00;;;;;;;24.76;44.40;98800.00;5012348;28;20102;-78
2021/09/19 05:51:29;;;;;;;0.32;0.32;;;;;;;24.77;45.07;98785.94;5011068;28;20076;-77
2021/09/19 05:53:54;;;;;;;0.00;0.00;;;;;;;24.80;44.18;98789.09;5011757;28;20174;-78
2021/09/19 05:56:19;;;;;;;0.10;0.10;;;;;;;24.76;44.12;98789.81;5011013;28;20117;-76
2021/09/19 05:58:45;;;;;;;0.00;0.00;;;;;;;24.81;44.13;98798.84;5010893;28;20049;-77
2021/09/19 06:01:10;;;;;;;0.00;0.00;;;;;;;24.81;43.92;98801.59;5012240;28;20017;-77
2021/09/19 06:03:38;;;;;;;0.00;0.00;;;;;;;24.81;44.09;98798.84;5010596;28;20049;-78
2021/09/19 06:06:03;;;;;;;0.00;0.00;;;;;;;24.66;44.15;98789.72;5010724;28;20032;-76
2021/09/19 06:08:28;;;;;;;0.73;0.40;;;;;;;24.52;44.21;98793.09;5011852;28;20025;-76
2021/09/19 06:10:54;;;;;;;0.00;0.00;;;;;;;24.35;44.83;98792.56;5012148;28;20104;-76
2021/09/19 06:13:19;;;;;;;0.65;0.38;;;;;;;24.31;45.05;98791.72;5012049;28;20017;-78
2021/09/19 06:15:45;;;;;;;0.00;0.00;;;;;;;24.17;45.04;98788.84;5011312;28;20032;-76
2021/09/19 06:18:10;;;;;;;0.00;0.00;;;;;;;24.11;45.62;98791.91;5011956;28;20081;-77
2021/09/19 06:20:36;;;;;;;0.00;0.00;;;;;;;24.06;45.67;98788.72;5012060;28;20034;-76
2021/09/19 06:23:01;;;;;;;0.10;0.10;;;;;;;23.95;45.66;98797.59;5012188;28;20034;-77
2021/09/19 06:25:26;;;;;;;0.00;0.00;;;;;;;23.82;45.72;98804.41;5011652;28;20025;-77
2021/09/19 06:27:52;;;;;;;0.17;0.17;;;;;;;23.59;46.14;98810.75;5011865;28;20075;-77
2021/09/19 06:30:17;;;;;;;0.10;0.10;;;;;;;23.46;46.64;98809.38;5011707;28;20022;-76
2021/09/19 06:32:43;;;;;;;0.15;0.10;;;;;;;23.38;47.21;98799.56;5011263;28;20026;-77
2021/09/19 06:35:09;;;;;;;0.15;0.15;;;;;;;23.41;47.10;98810.53;5010889;28;20405;-77
2021/09/19 06:37:35;;;;;;;0.00;0.00;;;;;;;23.40;46.86;98806.22;5011651;28;20037;-77
2021/09/19 06:40:00;;;;;;;0.00;0.00;;;;;;;23.39;47.12;98796.44;5011376;28;20029;-77
2021/09/19 06:42:26;;;;;;;0.80;0.80;;;;;;;23.38;47.19;98796.81;5012008;28;20108;-76
2021/09/19 06:44:52;;;;;;;0.10;0.10;;;;;;;23.39;47.09;98804.63;5010059;28;20113;-78
2021/09/19 06:47:17;;;;;;;0.00;0.00;;;;;;;23.43;47.24;98805.47;5011174;28;20491;-78
2021/09/19 06:49:43;;;;;;;0.00;0.00;;;;;;;23.47;47.26;98800.84;5009929;28;20025;-77
2021/09/19 06:52:08;;;;;;;0.00;0.00;;;;;;;23.60;46.94;98806.88;5010289;28;20033;-77
2021/09/19 06:54:34;;;;;;;0.00;0.00;;;;;;;23.68;46.84;98805.03;5011257;28;20803;-76
2021/09/19 06:56:59;;;;;;;0.10;0.10;;;;;;;23.74;46.91;98787.16;5011342;28;20041;-77
2021/09/19 06:59:24;;;;;;;0.10;0.10;;;;;;;23.75;46.09;98788.72;5011291;28;20065;-77
2021/09/19 07:01:50;;;;;;;0.22;0.22;;;;;;;23.75;46.52;98799.63;5011208;28;20120;-76
2021/09/19 07:04:15;;;;;;;0.00;0.00;;;;;;;23.76;45.64;98795.75;5011655;28;20022;-77
2021/09/19 07:06:41;;;;;;;0.00;0.00;;;;;;;23.64;45.68;98791.34;5011057;28;20105;-77
2021/09/19 07:09:07;;;;;;;0.10;0.10;;;;;;;23.58;46.14;98787.34;5010226;28;20022;-78
2021/09/19 07:11:33;;;;;;;0.00;0.00;;;;;;;23.59;46.42;98799.81;5011306;28;20030;-77
2021/09/19 07:13:58;;;;;;;0.10;0.10;;;;;;;23.60;46.33;98792.44;5009864;28;20458;-77
2021/09/19 07:16:24;;;;;;;0.00;0.00;;;;;;;23.64;46.09;98785.06;5011383;28;20426;-77
2021/09/19 07:18:49;;;;;;;0.20;0.20;;;;;;;23.72;46.04;98802.34;5009567;28;20053;-76
2021/09/19 07:21:15;;;;;;;0.00;0.00;;;;;;;23.74;46.19;98803.56;5010970;28;20017;-77
2021/09/19 07:23:40;;;;;;;0.00;0.00;;;;;;;23.85;45.82;98805.63;5009871;28;20029;-78
2021/09/19 07:26:06;;;;;;;0.00;0.00;;;;;;;23.95;45.66;98807.72;5011624;28;20053;-78
2021/09/19 07:28:32;;;;;;;1.65;0.20;;;;;;;24.01;44.74;98808.97;5011242;28;20022;-77
2021/09/19 07:30:57;;;;;;;0.43;0.43;;;;;;;24.03;44.94;98808.59;5011077;28;20104;-78
2021/09/19 07:33:23;;;;;;;0.00;0.00;;;;;;;24.14;44.80;98809.50;5011176;28;20030;-78
2021/09/19 07:35:50;;;;;;;0.22;0.22;;;;;;;24.19;44.56;98800.19;5010929;28;20101;-77
2021/09/19 07:38:16;;;;;;;0.00;0.00;;;;;;;24.17;44.44;98799.75;5011204;28;20100;-78
2021/09/19 07:40:42;;;;;;;0.00;0.00;;;;;;;24.18;44.19;98798.59;5010499;28;20018;-78
2021/09/19 07:43:08;;;;;;;0.00;0.00;;;;;;;24.20;44.28;98799.81;5011494;28;20037;-78
2021/09/19 07:45:34;;;;;;;0.15;0.15;;;;;;;24.28;44.61;98804.19;5011447;28;20132;-77
2021/09/19 07:48:01;;;;;;;0.00;0.00;;;;;;;24.34;44.70;98804.66;5015440;28;20029;-77
2021/09/19 07:50:26;;;;;;;0.10;0.10;;;;;;;24.32;44.10;98804.22;5014968;28;20083;-78
2021/09/19 07:52:52;;;;;;;0.00;0.00;;;;;;;24.31;44.30;98799.91;5014333;28;20100;-77
2021/09/19 07:55:17;;;;;;;0.00;0.00;;;;;;;24.44;44.63;98795.00;5014799;28;20018;-77
2021/09/19 07:57:43;;;;;;;0.00;0.00;;;;;;;24.53;44.50;98800.91;5012732;28;20026;-77
2021/09/19 08:00:09;;;;;;;0.00;0.00;;;;;;;24.59;44.33;98798.63;5014177;28;20032;-77
2021/09/19 08:02:35;;;;;;;0.05;0.05;;;;;;;24.67;44.56;98797.56;5014626;28;20025;-77
2021/09/19 08:05:01;;;;;;;0.00;0.00;;;;;;;24.82;43.97;98792.22;5013003;28;20026;-77
2021/09/19 08:07:26;;;;;;;0.03;0.03;;;;;;;24.88;43.99;98786.03;5014139;28;20508;-78
2021/09/19 08:09:51;;;;;;;0.08;0.08;;;;;;;24.92;43.93;98781.34;5014260;28;20029;-77
2021/09/19 08:12:17;;;;;;;0.20;0.20;;;;;;;24.95;43.84;98779.84;5014302;28;20113;-77
2021/09/19 08:14:42;;;;;;;0.08;0.08;;;;;;;25.02;44.18;98774.38;5014853;28;20097;-77
2021/09/19 08:17:08;;;;;;;0.10;0.10;;;;;;;25.13;44.19;98773.69;5013805;28;20022;-77
2021/09/19 08:19:34;;;;;;;0.10;0.10;;;;;;;25.25;44.34;98767.91;5014455;28;20037;-77
2021/09/19 08:22:00;;;;;;;0.32;0.32;;;;;;;25.37;44.53;98769.53;5013754;28;20033;-77
2021/09/19 08:24:25;;;;;;;0.00;0.00;;;;;;;25.47;44.32;98771.56;5014039;28;20393;-78
2021/09/19 08:26:51;;;;;;;0.00;0.00;;;;;;;25.60;43.03;98771.22;5014104;28;20026;-78
2021/09/19 08:29:16;;;;;;;0.00;0.00;;;;;;;25.68;42.70;98770.91;5014022;28;20021;-78
2021/09/19 08:31:42;;;;;;;0.00;0.00;;;;;;;25.71;42.66;98769.34;5012348;28;20030;-77
2021/09/19 08:34:08;;;;;;;0.00;0.00;;;;;;;25.76;42.59;98766.22;5014112;28;20350;-76
2021/09/19 08:36:34;;;;;;;0.05;0.05;;;;;;;25.82;42.92;98766.66;5014131;28;20052;-77
2021/09/19 08:39:01;;;;;;;0.00;0.00;;;;;;;25.84;42.37;98756.88;5013320;28;20022;-78
2021/09/19 08:41:26;;;;;;;0.17;0.17;;;;;;;25.83;43.17;98755.31;5012836;28;20025;-76
2021/09/19 08:43:52;;;;;;;0.00;0.00;;;;;;;25.75;43.18;98750.97;5013691;28;20018;-77
2021/09/19 08:46:20;;;;;;;0.00;0.00;;;;;;;25.74;44.12;98754.88;5013550;28;20369;-77
2021/09/19 08:48:45;;;;;;;0.28;0.28;;;;;;;25.81;44.07;98754.13;5013937;28;20036;-79
2021/09/19 08:51:12;;;;;;;0.00;0.00;;;;;;;25.87;44.29;98766.28;5013536;28;20034;-77
2021/09/19 08:53:37;;;;;;;0.00;0.00;;;;;;;25.84;44.15;98767.03;5013482;28;20049;-76
2021/09/19 08:56:04;;;;;;;0.13;0.13;;;;;;;25.88;43.91;98757.66;5011834;28;20054;-78
2021/09/19 08:58:31;;;;;;;0.50;0.50;;;;;;;25.94;44.26;98755.34;5012412;28;20022;-77
2021/09/19 09:00:59;;;;;;;0.00;0.00;;;;;;;26.00;44.93;98756.53;5013133;28;20368;-77
2021/09/19 09:03:24;;;;;;;0.10;0.10;;;;;;;26.07;44.60;98753.03;5013467;28;20029;-78
2021/09/19 09:06:09;;;;;;;0.00;0.00;;;;;;;26.20;43.80;98759.72;5011871;28;20025;-77
2021/09/19 09:08:35;;;;;;;0.00;0.00;;;;;;;26.23;43.55;98749.94;5013421;28;20030;-77
2021/09/19 09:11:05;;;;;;;0.60;0.28;;;;;;;26.33;44.00;98742.91;5013471;28;20497;-77
2021/09/19 09:13:35;;;;;;;0.00;0.00;;;;;;;26.38;43.17;98753.50;5013369;28;20057;-78
2021/09/19 09:16:03;;;;;;;0.00;0.00;;;;;;;26.30;43.62;98752.69;5011354;28;20022;-77
2021/09/19 09:18:31;;;;;;;;;;;;;;;26.32;43.72;98752.31;5013343;28;20041;-78
2021/09/19 09:21:06;;;;;;;0.10;0.10;;;;;;;26.32;43.54;98733.91;5012970;28;19960;-77
2021/09/19 09:23:41;;;;;;;0.00;0.00;;;;;;;26.34;43.62;98739.00;5011886;28;20113;-77
2021/09/19 09:26:23;;;;;;;0.20;0.20;;;;;;;26.35;43.16;98735.09;5012798;28;20526;-77
2021/09/19 09:29:07;;;;;;;0.00;0.00;;;;;;;26.27;43.35;98731.56;5012685;28;20096;-77
2021/09/19 09:31:34;;;;;;;1.25;0.60;;;;;;;26.19;43.76;98728.00;5012900;28;20076;-78
2021/09/19 09:34:16;;;;;;;0.60;0.10;;;;;;;26.12;44.59;98722.53;5012571;28;20023;-77
2021/09/19 09:37:00;;;;;;;0.00;0.00;;;;;;;26.15;44.55;98718.22;5012652;28;20143;-78
2021/09/19 09:39:36;;;;;;;0.00;0.00;;;;;;;26.18;44.77;98714.69;5012724;28;20022;-78
2021/09/19 09:42:16;;;;;;;0.00;0.00;;;;;;;26.27;45.00;98715.13;5012418;28;20026;-77
2021/09/19 09:44:44;;;;;;;0.03;0.03;;;;;;;26.32;43.97;98708.47;5012971;28;20108;-77
2021/09/19 09:47:14;;;;;;;0.00;0.00;;;;;;;26.36;43.96;98698.28;5012408;28;20070;-78
2021/09/19 09:49:57;;;;;;;0.00;0.00;;;;;;;26.42;44.20;98693.97;5012730;28;20072;-77
2021/09/19 09:52:24;;;;;;;0.00;0.00;;;;;;;26.46;43.26;98683.00;5012380;28;20065;-78
2021/09/19 09:54:52;;;;;;;0.00;0.00;;;;;;;26.50;43.40;98686.50;5011884;28;20022;-79
2021/09/19 09:57:56;;;;;;;0.00;0.00;;;;;;;26.53;43.04;98688.47;5012237;28;20029;-76
2021/09/19 10:00:22;;;;;;;0.00;0.00;;;;;;;26.55;42.83;98688.88;5008109;28;20033;-79
2021/09/19 10:02:50;;;;;;;0.10;0.10;;;;;;;26.61;42.79;98687.31;5011030;28;20029;-79
2021/09/19 10:05:16;;;;;;;0.08;0.08;;;;;;;26.65;42.87;98696.31;5011037;28;20377;-78
2021/09/19 10:07:43;;;;;;;0.00;0.00;;;;;;;26.69;42.16;98694.31;5010979;28;20030;-77
2021/09/19 10:10:12;;;;;;;0.00;0.00;;;;;;;26.59;41.93;98691.63;5011878;28;20026;-77
2021/09/19 10:12:38;;;;;;;0.00;0.00;;;;;;;26.56;42.55;98684.16;5012197;28;20253;-78
2021/09/19 10:15:05;;;;;;;0.10;0.05;;;;;;;26.59;42.93;98675.94;5010832;28;20087;-78
2021/09/19 10:17:31;;;;;;;0.00;0.00;;;;;;;26.65;43.70;98670.84;5010460;28;20081;-77
2021/09/19 10:19:57;;;;;;;0.00;0.00;;;;;;;26.76;43.33;98668.13;5012118;28;20061;-77
2021/09/19 10:22:30;;;;;;;0.03;0.03;;;;;;;26.83;42.83;98670.81;5012009;28;20056;-78
2021/09/19 10:24:56;;;;;;;0.00;0.00;;;;;;;26.82;42.61;98672.81;5011884;28;20021;-77
2021/09/19 10:27:28;;;;;;;0.00;0.00;;;;;;;26.83;42.73;98657.91;5012013;28;20036;-78
2021/09/19 10:29:58;;;;;;;0.00;0.00;;;;;;;26.88;42.96;98664.97;5011485;28;20465;-78
2021/09/19 10:32:46;;;;;;;0.00;0.00;;;;;;;26.93;42.76;98664.53;5011814;28;20079;-78
2021/09/19 10:35:17;;;;;;;0.00;0.00;;;;;;;26.95;42.30;98673.19;5011630;28;20030;-78
2021/09/19 10:38:01;;;;;;;0.00;0.00;;;;;;;26.99;42.49;98662.97;5011648;28;20026;-78
2021/09/19 10:40:38;;;;;;;0.00;0.00;;;;;;;26.94;42.56;98657.09;5011836;28;20022;-77
2021/09/19 10:43:16;;;;;;;0.00;0.00;;;;;;;26.93;42.46;98652.81;5010179;28;20026;-78
2021/09/19 10:45:43;;;;;;;0.00;0.00;;;;;;;27.00;42.56;98655.50;5011436;28;20026;-77
2021/09/19 10:48:15;;;;;;;0.00;0.00;;;;;;;27.06;42.40;98642.16;5011422;28;20026;-76
2021/09/19 10:50:42;;;;;;;0.08;0.08;;;;;;;27.17;42.78;98638.22;5011535;28;20026;-78
2021/09/19 10:53:23;;;;;;;0.00;0.00;;;;;;;27.35;42.47;98631.06;5011311;28;20025;-78
2021/09/19 10:56:01;;;;;;;0.10;0.10;;;;;;;27.46;41.87;98618.88;5011251;28;20048;-77
2021/09/19 10:58:37;;;;;;;0.45;0.45;;;;;;;27.55;41.94;98618.44;5011354;28;20024;-77
2021/09/19 11:01:13;;;;;;;0.47;0.20;;;;;;;27.65;41.19;98611.31;5011117;28;20018;-77
2021/09/19 11:03:41;;;;;;;0.10;0.10;;;;;;;27.64;40.87;98618.00;5011376;28;20033;-77
2021/09/19 11:06:20;;;;;;;;;;;;;;;27.60;40.98;98622.72;5010471;28;20395;-79
2021/09/19 11:08:45;;;;;;;0.00;0.00;;;;;;;27.59;41.25;98630.19;5010338;28;19909;-78
2021/09/19 11:11:12;;;;;;;0.10;0.10;;;;;;;27.54;41.39;98613.34;5009915;28;20602;-77
2021/09/19 11:13:46;;;;;;;0.00;0.00;;;;;;;27.52;41.71;98610.22;5009990;28;20512;-78
2021/09/19 11:16:18;;;;;;;0.47;0.47;;;;;;;27.55;41.32;98610.22;5011156;28;20034;-78
2021/09/19 11:18:47;;;;;;;0.38;0.38;;;;;;;27.59;41.33;98605.47;5011399;28;20073;-77
2021/09/19 11:21:17;;;;;;;0.00;0.00;;;;;;;27.54;41.35;98602.34;5011300;28;20550;-78
2021/09/19 11:23:52;;;;;;;0.00;0.00;;;;;;;27.52;41.51;98591.78;5015205;28;20054;-78
2021/09/19 11:26:27;;;;;;;2.13;0.55;;;;;;;27.53;41.62;98589.81;5015211;28;20084;-78
2021/09/19 11:29:03;;;;;;;0.00;0.00;;;;;;;27.51;41.74;98594.94;5014952;28;20091;-77
2021/09/19 11:31:28;;;;;;;0.00;0.00;;;;;;;27.52;41.59;98591.78;5015162;28;20465;-78
2021/09/19 11:33:54;;;;;;;0.00;0.00;;;;;;;27.49;41.64;98589.84;5014764;28;20029;-77